Time;durP1;ratioP1;P1;durP2;ratioP2;P2;SDS_P1;SDS_P2;PMS_P1;PMS_P2;Temp;Humidity;BMP_temperature;BMP_pressure;BME280_temperature;BME280_humidity;BME280_pressure;Samples;Min_cycle;Max_cycle;Signal;HPM_P1;HPM_P2
2021/11/17 02:27:06;;;;;;;1.20;0.90;;;7.00;98.00;;;;;;5092248;28;20435;-71
2021/11/17 02:30:04;;;;;;;1.20;1.00;;;7.00;98.00;;;;;;5092270;28;20485;-71
2021/11/17 02:32:47;;;;;;;1.30;1.30;;;7.00;98.00;;;;;;5091874;28;20531;-71
2021/11/17 02:35:33;;;;;;;1.20;1.10;;;6.90;98.00;;;;;;5092001;28;20524;-73
2021/11/17 02:38:14;;;;;;;1.30;1.20;;;6.80;98.00;;;;;;5091966;28;20497;-71
2021/11/17 02:40:57;;;;;;;1.83;1.20;;;6.80;98.00;;;;;;5091951;28;20517;-71
2021/11/17 02:43:38;;;;;;;1.50;1.40;;;6.80;98.00;;;;;;5091684;28;20482;-71
2021/11/17 02:46:21;;;;;;;1.87;1.20;;;6.70;98.00;;;;;;5091904;28;20454;-71
2021/11/17 02:49:01;;;;;;;1.20;1.07;;;6.70;98.00;;;;;;5090474;28;20851;-71
2021/11/17 02:51:50;;;;;;;1.20;0.93;;;6.70;98.00;;;;;;5091669;28;20453;-71
2021/11/17 02:54:42;;;;;;;1.40;1.30;;;6.60;98.00;;;;;;5091761;28;20938;-71
2021/11/17 02:57:36;;;;;;;1.63;1.57;;;6.70;98.00;;;;;;5091545;28;20463;-71
2021/11/17 03:00:42;;;;;;;1.30;1.20;;;6.80;98.00;;;;;;5091869;28;20511;-71
2021/11/17 03:03:25;;;;;;;1.20;1.07;;;7.10;98.00;;;;;;5091126;28;20511;-71
2021/11/17 03:06:06;;;;;;;1.20;1.20;;;7.10;98.00;;;;;;5091639;28;20455;-72
2021/11/17 03:08:55;;;;;;;1.83;1.30;;;6.90;98.00;;;;;;5091696;28;20945;-71
2021/11/17 03:11:55;;;;;;;1.47;1.30;;;7.00;98.00;;;;;;5091521;28;20452;-70
2021/11/17 03:14:39;;;;;;;1.77;1.37;;;7.00;98.00;;;;;;5075161;28;20485;-71
2021/11/17 03:17:24;;;;;;;1.33;1.10;;;7.00;98.00;;;;;;5095922;28;20463;-72
2021/11/17 03:20:06;;;;;;;1.20;1.00;;;7.00;98.00;;;;;;5094846;28;20509;-71
2021/11/17 03:22:47;;;;;;;1.20;1.00;;;7.10;98.00;;;;;;5095688;28;20547;-71
2021/11/17 03:25:29;;;;;;;1.97;1.60;;;7.10;98.00;;;;;;5095739;28;20485;-71
2021/11/17 03:28:19;;;;;;;1.20;1.00;;;7.20;98.00;;;;;;5095148;28;20944;-71
2021/11/17 03:31:21;;;;;;;1.37;1.33;;;7.20;98.00;;;;;;5095682;28;20448;-71
2021/11/17 03:34:04;;;;;;;1.20;1.20;;;7.10;98.00;;;;;;5095571;28;20450;-72
2021/11/17 03:36:51;;;;;;;2.20;1.40;;;7.10;98.00;;;;;;5095252;28;20458;-71
2021/11/17 03:39:46;;;;;;;1.20;0.97;;;7.10;98.00;;;;;;5095192;28;20459;-71
2021/11/17 03:42:40;;;;;;;1.20;1.10;;;7.00;98.00;;;;;;5089722;28;20466;-71
2021/11/17 03:45:38;;;;;;;1.20;1.00;;;7.10;98.00;;;;;;5095202;28;20483;-71
2021/11/17 03:48:20;;;;;;;1.20;1.00;;;7.10;98.00;;;;;;5095023;28;20462;-71
2021/11/17 03:51:10;;;;;;;2.23;1.27;;;7.20;98.00;;;;;;5094870;28;20457;-71
2021/11/17 03:54:02;;;;;;;1.20;1.10;;;7.20;98.00;;;;;;5094752;28;20492;-71
2021/11/17 03:56:45;;;;;;;1.30;1.10;;;7.20;98.00;;;;;;5094901;28;20461;-71
2021/11/17 03:59:27;;;;;;;2.33;1.30;;;7.30;98.00;;;;;;5094980;28;20525;-71
2021/11/17 04:02:08;;;;;;;2.00;1.30;;;7.40;98.00;;;;;;5094704;28;20457;-72
2021/11/17 04:04:50;;;;;;;1.20;1.10;;;7.40;98.00;;;;;;5094741;28;20514;-71
2021/11/17 04:07:38;;;;;;;1.80;1.57;;;7.50;98.00;;;;;;5094630;28;20461;-71
2021/11/17 04:10:23;;;;;;;1.20;1.17;;;7.40;98.00;;;;;;5094818;28;20459;-71
2021/11/17 04:13:00;;;;;;;1.40;1.20;;;7.40;98.00;;;;;;5094458;28;20528;-71
2021/11/17 04:15:43;;;;;;;1.50;1.30;;;7.30;98.00;;;;;;5094687;28;20551;-71
2021/11/17 04:18:23;;;;;;;2.13;1.77;;;7.20;98.00;;;;;;5094528;28;20816;-71
2021/11/17 04:21:03;;;;;;;1.30;1.20;;;7.10;98.00;;;;;;5094217;28;20839;-71
2021/11/17 04:23:43;;;;;;;1.40;1.20;;;7.10;98.00;;;;;;5092488;28;20462;-72
2021/11/17 04:26:33;;;;;;;1.40;1.20;;;7.10;98.00;;;;;;5093754;28;20493;-71
2021/11/17 04:29:24;;;;;;;1.37;1.10;;;7.10;98.00;;;;;;5094319;28;20575;-72
2021/11/17 04:32:25;;;;;;;2.80;1.30;;;7.00;98.00;;;;;;5094288;28;20463;-71
2021/11/17 04:35:22;;;;;;;1.37;1.20;;;7.00;98.00;;;;;;5083608;28;20458;-72
2021/11/17 04:38:15;;;;;;;1.93;1.10;;;7.10;98.00;;;;;;5094589;28;20969;-71
2021/11/17 04:41:09;;;;;;;1.20;1.00;;;7.10;98.00;;;;;;5094632;28;20489;-72
2021/11/17 04:43:49;;;;;;;2.07;1.70;;;7.00;98.00;;;;;;5083684;28;20489;-71
2021/11/17 04:46:35;;;;;;;3.20;1.67;;;7.00;98.00;;;;;;5094362;28;20550;-70
2021/11/17 04:49:20;;;;;;;1.20;1.00;;;7.00;98.00;;;;;;5094017;28;20460;-71
2021/11/17 04:52:03;;;;;;;1.83;1.40;;;7.00;98.00;;;;;;5092598;28;20521;-71
2021/11/17 04:54:43;;;;;;;1.20;0.90;;;7.00;98.00;;;;;;5093911;28;21018;-72
2021/11/17 04:57:34;;;;;;;1.30;1.17;;;7.00;98.00;;;;;;5093681;28;20823;-71
2021/11/17 05:00:30;;;;;;;1.57;1.20;;;7.00;98.00;;;;;;5093650;28;20484;-71
2021/11/17 05:03:09;;;;;;;3.40;1.40;;;6.90;98.00;;;;;;5093622;28;20552;-71
2021/11/17 05:05:51;;;;;;;2.00;1.00;;;6.90;98.00;;;;;;5093550;28;20550;-70
2021/11/17 05:08:25;;;;;;;1.80;1.50;;;6.90;98.00;;;;;;5093555;28;20911;-70
2021/11/17 05:11:04;;;;;;;1.23;1.20;;;7.00;98.00;;;;;;5093569;28;20497;-71
2021/11/17 05:13:41;;;;;;;1.50;1.50;;;7.00;98.00;;;;;;5093276;28;20517;-71
2021/11/17 05:16:22;;;;;;;1.20;1.20;;;7.00;98.00;;;;;;5093328;28;20456;-71
2021/11/17 05:18:56;;;;;;;1.33;1.20;;;7.00;98.00;;;;;;5092023;28;20460;-70
2021/11/17 05:21:40;;;;;;;3.00;1.33;;;7.10;98.00;;;;;;5093482;28;20552;-71
2021/11/17 05:24:21;;;;;;;1.20;1.00;;;7.10;98.00;;;;;;5091965;28;20482;-71
2021/11/17 05:27:03;;;;;;;1.70;1.10;;;7.10;98.00;;;;;;5093200;28;20482;-71
2021/11/17 05:29:45;;;;;;;1.20;1.00;;;7.00;98.00;;;;;;5093366;28;20451;-71
2021/11/17 05:32:27;;;;;;;1.20;1.00;;;7.10;98.00;;;;;;5093136;28;20482;-72
2021/11/17 05:35:06;;;;;;;1.30;1.20;;;7.10;98.00;;;;;;5092647;28;20478;-72
2021/11/17 05:37:45;;;;;;;1.20;1.00;;;7.10;98.00;;;;;;5093153;28;20456;-70
2021/11/17 05:40:36;;;;;;;1.30;1.10;;;7.00;98.00;;;;;;5093345;28;20506;-71
2021/11/17 05:43:14;;;;;;;1.20;1.10;;;7.00;98.00;;;;;;5093153;28;20455;-71
2021/11/17 05:46:04;;;;;;;1.20;0.90;;;7.00;98.00;;;;;;5093014;28;20519;-71
2021/11/17 05:48:44;;;;;;;1.20;1.10;;;7.00;98.00;;;;;;5093023;28;20942;-72
2021/11/17 05:51:36;;;;;;;1.90;1.53;;;7.00;98.00;;;;;;5093013;28;20523;-72
2021/11/17 05:54:24;;;;;;;1.30;1.20;;;7.10;98.00;;;;;;5093106;28;20452;-72
2021/11/17 05:57:06;;;;;;;1.20;1.00;;;7.20;98.00;;;;;;5091341;28;20527;-71
2021/11/17 05:59:51;;;;;;;1.20;1.00;;;7.20;98.00;;;;;;5093015;28;20450;-71
2021/11/17 06:02:42;;;;;;;1.20;1.00;;;7.10;98.00;;;;;;5092370;28;20469;-70
2021/11/17 06:05:10;;;;;;;1.20;1.10;;;7.10;98.00;;;;;;5092600;28;20485;-71
2021/11/17 06:07:36;;;;;;;1.90;1.30;;;7.20;98.00;;;;;;5092120;28;20516;-71
2021/11/17 06:10:09;;;;;;;1.20;1.10;;;7.20;98.00;;;;;;5092281;28;20466;-71
2021/11/17 06:12:36;;;;;;;1.30;1.10;;;7.30;98.00;;;;;;5092123;28;20494;-70
2021/11/17 06:15:06;;;;;;;1.20;1.00;;;7.30;98.00;;;;;;5091115;28;20452;-71
2021/11/17 06:17:35;;;;;;;1.20;1.10;;;7.30;98.00;;;;;;5092319;28;20815;-71
2021/11/17 06:20:03;;;;;;;1.20;1.00;;;7.30;98.00;;;;;;5092334;28;20480;-70
2021/11/17 06:22:33;;;;;;;2.00;1.47;;;7.10;98.00;;;;;;5092196;28;20462;-70
2021/11/17 06:25:07;;;;;;;1.20;1.00;;;7.00;98.00;;;;;;5092215;28;20538;-70
2021/11/17 06:27:39;;;;;;;1.70;1.20;;;7.00;98.00;;;;;;5092066;28;20455;-71
2021/11/17 06:30:10;;;;;;;1.20;1.00;;;7.00;98.00;;;;;;5092053;28;20456;-70
2021/11/17 06:32:37;;;;;;;1.20;1.00;;;6.90;98.00;;;;;;5092033;28;20511;-70
2021/11/17 06:35:05;;;;;;;1.27;1.13;;;6.80;98.00;;;;;;5091928;28;20492;-71
2021/11/17 06:37:33;;;;;;;1.20;1.10;;;6.90;98.00;;;;;;5092033;28;20494;-70
2021/11/17 06:40:02;;;;;;;1.20;1.00;;;7.00;98.00;;;;;;5091940;28;20454;-70
2021/11/17 06:42:36;;;;;;;1.20;1.20;;;7.00;98.00;;;;;;5091774;28;20518;-71
2021/11/17 06:45:06;;;;;;;1.30;1.10;;;7.00;98.00;;;;;;5092081;28;20511;-71
2021/11/17 06:47:33;;;;;;;2.60;1.30;;;7.10;98.00;;;;;;5091028;28;20492;-71
2021/11/17 06:50:00;;;;;;;1.20;1.00;;;7.10;98.00;;;;;;5091647;28;20511;-70
2021/11/17 06:52:27;;;;;;;1.40;1.10;;;7.20;98.00;;;;;;5092075;28;20453;-71
2021/11/17 06:54:54;;;;;;;1.20;1.00;;;7.10;98.00;;;;;;5091890;28;20453;-71
2021/11/17 06:57:21;;;;;;;1.20;0.90;;;6.90;98.00;;;;;;5091922;28;20461;-71
2021/11/17 06:59:50;;;;;;;1.23;1.07;;;6.80;98.00;;;;;;5090890;28;20487;-70
2021/11/17 07:02:17;;;;;;;1.20;0.97;;;6.90;98.00;;;;;;5091695;28;20524;-70
2021/11/17 07:04:44;;;;;;;1.20;1.00;;;6.90;98.00;;;;;;5091768;28;20476;-71
2021/11/17 07:07:13;;;;;;;1.20;1.00;;;6.80;98.00;;;;;;5091925;28;20458;-70
2021/11/17 07:09:40;;;;;;;1.40;1.30;;;6.90;98.00;;;;;;5091765;28;20522;-70
2021/11/17 07:12:08;;;;;;;1.30;1.10;;;6.80;98.00;;;;;;5091911;28;20945;-70
2021/11/17 07:14:36;;;;;;;1.20;1.00;;;6.70;98.00;;;;;;5091507;28;20965;-71
2021/11/17 07:17:04;;;;;;;1.20;1.03;;;6.70;98.00;;;;;;5091353;28;20492;-68
2021/11/17 07:19:32;;;;;;;1.10;1.00;;;6.70;98.00;;;;;;5091668;28;20855;-69
2021/11/17 07:22:01;;;;;;;1.07;0.90;;;7.20;98.00;;;;;;5091434;28;20461;-70
2021/11/17 07:24:29;;;;;;;1.10;1.00;;;8.80;98.00;;;;;;5091464;28;20485;-70
2021/11/17 07:26:57;;;;;;;1.20;1.17;;;9.60;98.00;;;;;;5091448;28;20943;-70
2021/11/17 07:29:24;;;;;;;1.30;1.10;;;9.40;98.00;;;;;;5091383;28;20492;-70
2021/11/17 07:31:52;;;;;;;1.23;1.10;;;9.20;98.00;;;;;;5091262;28;20452;-71
2021/11/17 07:34:20;;;;;;;1.50;1.10;;;9.40;98.00;;;;;;5091442;28;20489;-70
2021/11/17 07:36:48;;;;;;;1.90;1.13;;;9.50;98.00;;;;;;5090739;28;20523;-71
2021/11/17 07:39:16;;;;;;;1.20;1.00;;;9.10;98.00;;;;;;5090990;28;20447;-71
2021/11/17 07:41:46;;;;;;;1.20;1.07;;;8.80;98.00;;;;;;5091431;28;20520;-71
2021/11/17 07:44:16;;;;;;;2.13;1.60;;;8.70;98.00;;;;;;5091411;28;20512;-71
2021/11/17 07:46:44;;;;;;;1.20;1.20;;;8.50;98.00;;;;;;5091323;28;20472;-71
2021/11/17 07:49:12;;;;;;;1.20;1.10;;;8.30;98.00;;;;;;5091088;28;20452;-71
2021/11/17 07:51:40;;;;;;;1.47;1.40;;;8.10;98.00;;;;;;5091484;28;20455;-71
2021/11/17 07:54:07;;;;;;;1.20;1.20;;;8.00;98.00;;;;;;5091553;28;20486;-71
2021/11/17 07:56:35;;;;;;;1.20;1.00;;;7.80;98.00;;;;;;5090945;28;20488;-71
2021/11/17 07:59:03;;;;;;;1.20;1.00;;;7.70;98.00;;;;;;5093668;28;20468;-72
2021/11/17 08:01:30;;;;;;;1.20;1.00;;;7.50;98.00;;;;;;5095065;28;20948;-72
2021/11/17 08:03:57;;;;;;;1.20;1.00;;;7.40;98.00;;;;;;5094802;28;20625;-72
2021/11/17 08:06:27;;;;;;;1.30;1.10;;;7.50;98.00;;;;;;5091895;28;20526;-74
2021/11/17 08:08:55;;;;;;;1.20;1.00;;;7.30;98.00;;;;;;5109053;28;20978;-72
2021/11/17 08:11:23;;;;;;;1.30;1.30;;;7.30;98.00;;;;;;5103073;28;20507;-72
2021/11/17 08:13:51;;;;;;;1.30;1.03;;;7.30;98.00;;;;;;5110410;28;20487;-70
2021/11/17 08:16:21;;;;;;;1.20;1.10;;;7.30;98.00;;;;;;5102503;28;20466;-71
2021/11/17 08:18:51;;;;;;;1.30;1.00;;;7.40;98.00;;;;;;5110054;28;20531;-72
2021/11/17 08:21:21;;;;;;;1.20;1.10;;;7.30;98.00;;;;;;5094438;28;20465;-69
2021/11/17 08:23:48;;;;;;;1.20;1.00;;;7.20;98.00;;;;;;5101913;28;20464;-73
2021/11/17 08:26:18;;;;;;;2.33;1.50;;;7.20;98.00;;;;;;5101942;28;20584;-72
2021/11/17 08:28:46;;;;;;;1.77;1.43;;;7.10;98.00;;;;;;5109625;27;20489;-71
2021/11/17 08:31:14;;;;;;;1.20;1.00;;;7.10;98.00;;;;;;5100393;28;20458;-70
2021/11/17 08:33:41;;;;;;;1.70;1.33;;;7.10;98.00;;;;;;5093658;28;20493;-70
2021/11/17 08:36:09;;;;;;;1.20;1.00;;;7.10;98.00;;;;;;5094391;28;20489;-70
2021/11/17 08:38:37;;;;;;;1.20;1.00;;;7.10;98.00;;;;;;5100144;28;20467;-71
2021/11/17 08:41:07;;;;;;;1.10;0.90;;;7.10;98.00;;;;;;5101365;28;20482;-70
2021/11/17 08:43:36;;;;;;;1.20;1.10;;;7.30;98.00;;;;;;5102816;28;20459;-71
2021/11/17 08:46:04;;;;;;;1.40;1.10;;;7.30;98.00;;;;;;5093892;28;20529;-70
2021/11/17 08:48:33;;;;;;;1.20;1.10;;;7.20;98.00;;;;;;5099567;28;20534;-70
2021/11/17 08:51:04;;;;;;;1.20;1.20;;;7.30;98.00;;;;;;5103662;28;20815;-70
2021/11/17 08:53:35;;;;;;;1.20;1.10;;;7.20;98.00;;;;;;5109592;28;20469;-70
2021/11/17 08:56:04;;;;;;;3.50;1.67;;;7.30;98.00;;;;;;5100090;28;20459;-71
2021/11/17 08:58:34;;;;;;;1.20;1.00;;;7.30;98.00;;;;;;5109141;28;21216;-70
2021/11/17 09:01:02;;;;;;;1.20;1.03;;;7.40;98.00;;;;;;5099177;28;21051;-71
2021/11/17 09:03:29;;;;;;;1.20;1.00;;;7.40;98.00;;;;;;5102034;28;20549;-70
2021/11/17 09:05:59;;;;;;;3.27;1.07;;;7.40;98.00;;;;;;5103885;28;20527;-70
2021/11/17 09:08:26;;;;;;;1.20;1.00;;;7.30;98.00;;;;;;5098416;28;20524;-70
2021/11/17 09:10:55;;;;;;;1.20;1.00;;;7.30;98.00;;;;;;5100187;28;21859;-70
2021/11/17 09:13:23;;;;;;;1.70;1.40;;;7.40;98.00;;;;;;5101534;28;21182;-70
2021/11/17 09:15:52;;;;;;;1.20;1.00;;;7.50;98.00;;;;;;5092699;28;20459;-71
2021/11/17 09:18:23;;;;;;;1.20;1.10;;;7.60;98.00;;;;;;5100712;28;21022;-70
2021/11/17 09:20:51;;;;;;;1.70;1.50;;;7.60;98.00;;;;;;5100084;28;21169;-69
2021/11/17 09:23:19;;;;;;;1.83;1.33;;;7.50;98.00;;;;;;5093205;28;20452;-70
2021/11/17 09:25:49;;;;;;;1.20;1.00;;;7.30;98.00;;;;;;5104144;28;20491;-69
2021/11/17 09:28:16;;;;;;;1.10;0.90;;;7.10;98.00;;;;;;5113373;28;20456;-70
2021/11/17 09:30:44;;;;;;;1.20;1.00;;;7.00;98.00;;;;;;5113606;27;20459;-71
2021/11/17 09:33:14;;;;;;;1.20;1.00;;;6.90;98.00;;;;;;5113620;28;20811;-70
2021/11/17 09:35:43;;;;;;;1.30;1.10;;;6.90;98.00;;;;;;5113604;28;20486;-71
2021/11/17 09:38:12;;;;;;;1.20;1.00;;;6.80;98.00;;;;;;5113712;28;20451;-70
2021/11/17 09:40:41;;;;;;;1.13;1.00;;;6.70;98.00;;;;;;5113684;28;20451;-70
2021/11/17 09:43:10;;;;;;;1.20;1.00;;;6.70;98.00;;;;;;5113103;28;20491;-70
2021/11/17 09:45:39;;;;;;;1.20;1.00;;;6.60;98.00;;;;;;5112703;28;20475;-70
2021/11/17 09:48:07;;;;;;;1.30;1.00;;;6.60;98.00;;;;;;5112557;28;20524;-70
2021/11/17 09:50:38;;;;;;;1.20;1.10;;;6.80;98.00;;;;;;5112454;28;20943;-70
2021/11/17 09:53:10;;;;;;;1.20;1.10;;;6.70;98.00;;;;;;5112596;28;20456;-70
2021/11/17 09:55:40;;;;;;;1.10;1.00;;;6.60;98.00;;;;;;5113157;28;20461;-70
2021/11/17 09:58:13;;;;;;;1.10;0.93;;;6.70;98.00;;;;;;5112882;28;20497;-70
2021/11/17 10:00:44;;;;;;;1.17;1.00;;;6.70;98.00;;;;;;5113001;28;20530;-70
2021/11/17 10:03:16;;;;;;;1.10;1.03;;;6.60;98.00;;;;;;5112970;28;20535;-70
2021/11/17 10:06:23;;;;;;;1.20;1.00;;;6.70;98.00;;;;;;5112870;28;20483;-70
2021/11/17 10:12:49;;;;;;;1.20;0.90;;;6.70;98.00;;;;;;5111963;28;20970;-70
2021/11/17 10:15:14;;;;;;;1.10;0.90;;;6.70;98.00;;;;;;5112595;28;20530;-70
2021/11/17 10:17:46;;;;;;;1.13;1.00;;;6.60;98.00;;;;;;5112744;28;20800;-70
2021/11/17 10:20:19;;;;;;;1.50;1.20;;;6.60;98.00;;;;;;5112605;28;21055;-71
2021/11/17 10:22:50;;;;;;;1.20;0.97;;;6.60;98.00;;;;;;5112586;28;20530;-70
2021/11/17 10:25:22;;;;;;;1.30;1.10;;;6.60;98.00;;;;;;5112703;28;20465;-71
2021/11/17 10:27:57;;;;;;;1.20;1.00;;;6.60;98.00;;;;;;5112506;28;20490;-70
2021/11/17 10:30:34;;;;;;;1.10;0.90;;;6.50;98.00;;;;;;5112632;28;20456;-70
2021/11/17 10:33:10;;;;;;;1.10;1.00;;;6.70;98.00;;;;;;5112495;28;21018;-70
2021/11/17 10:35:47;;;;;;;1.20;1.00;;;6.80;98.00;;;;;;5112607;28;20496;-70
2021/11/17 10:38:20;;;;;;;1.30;1.10;;;6.80;98.00;;;;;;5112307;28;20511;-70
2021/11/17 10:40:54;;;;;;;1.20;1.10;;;6.80;98.00;;;;;;5112472;28;20466;-70
2021/11/17 10:43:24;;;;;;;1.20;1.00;;;6.70;98.00;;;;;;5112635;28;20451;-71
2021/11/17 10:46:02;;;;;;;1.17;1.00;;;6.70;98.00;;;;;;5112224;28;21063;-70
2021/11/17 10:48:33;;;;;;;1.20;1.03;;;6.60;98.00;;;;;;5112453;28;20509;-70
2021/11/17 10:51:12;;;;;;;1.20;1.00;;;6.50;98.00;;;;;;5112525;28;20485;-70
2021/11/17 10:53:39;;;;;;;1.20;0.90;;;6.50;98.00;;;;;;5112832;28;20512;-70
2021/11/17 10:56:11;;;;;;;1.20;1.00;;;6.60;98.00;;;;;;5112367;28;20450;-70
2021/11/17 10:58:43;;;;;;;1.30;1.20;;;6.60;98.00;;;;;;5112026;28;21014;-70
2021/11/17 11:01:14;;;;;;;1.20;1.10;;;6.70;98.00;;;;;;5112414;28;20453;-70
2021/11/17 11:03:46;;;;;;;1.17;1.00;;;6.70;98.00;;;;;;5112185;28;20493;-69
2021/11/17 11:06:18;;;;;;;1.20;1.00;;;6.70;98.00;;;;;;5095369;28;20543;-73
2021/11/17 11:08:52;;;;;;;1.17;1.00;;;6.70;98.00;;;;;;5094288;28;20457;-73
2021/11/17 11:11:22;;;;;;;1.20;1.10;;;6.80;98.00;;;;;;5091509;28;20457;-74
2021/11/17 11:13:53;;;;;;;1.20;1.00;;;6.80;98.00;;;;;;5089454;28;20466;-71
2021/11/17 11:16:38;;;;;;;1.20;1.00;;;6.90;98.00;;;;;;5095129;28;20534;-72
2021/11/17 11:19:28;;;;;;;1.20;1.00;;;6.90;98.00;;;;;;5089930;28;20456;-73
2021/11/17 11:22:10;;;;;;;1.20;1.00;;;7.00;98.00;;;;;;5108384;28;21234;-74
2021/11/17 11:24:40;;;;;;;1.20;1.07;;;7.00;98.00;;;;;;5104935;28;20460;-73
2021/11/17 11:27:30;;;;;;;1.20;0.97;;;7.10;98.00;;;;;;5093450;28;20491;-75
2021/11/17 11:30:35;;;;;;;1.20;1.10;;;7.30;98.00;;;;;;5106373;28;20950;-70
2021/11/17 11:33:20;;;;;;;2.33;1.23;;;7.40;98.00;;;;;;5111799;28;21282;-70
2021/11/17 11:36:39;;;;;;;1.20;1.00;;;7.30;98.00;;;;;;5099437;28;20488;-70
2021/11/17 11:39:36;;;;;;;1.20;1.00;;;7.40;98.00;;;;;;5111489;28;20521;-70
2021/11/17 11:42:31;;;;;;;9.57;1.30;;;7.50;98.00;;;;;;5101088;28;20468;-71
2021/11/17 11:45:02;;;;;;;1.20;0.90;;;7.60;98.00;;;;;;5111737;28;20456;-71
2021/11/17 11:47:51;;;;;;;1.20;0.97;;;7.70;98.00;;;;;;5103330;28;20492;-72
2021/11/17 11:50:58;;;;;;;1.20;1.00;;;7.60;98.00;;;;;;5088229;28;20467;-70
2021/11/17 11:53:46;;;;;;;1.20;0.90;;;7.40;98.00;;;;;;5105431;28;20447;-70
2021/11/17 11:56:22;;;;;;;1.20;1.00;;;7.40;98.00;;;;;;5093394;28;20498;-72
2021/11/17 11:58:49;;;;;;;1.20;1.00;;;7.40;98.00;;;;;;5086537;28;20453;-70
2021/11/17 12:01:21;;;;;;;1.20;1.00;;;7.30;98.00;;;;;;5103264;28;20474;-71
2021/11/17 12:03:52;;;;;;;1.20;1.00;;;7.30;98.00;;;;;;5101712;28;20921;-71
2021/11/17 12:06:35;;;;;;;1.20;1.07;;;7.20;98.00;;;;;;5094729;28;20865;-71
2021/11/17 12:09:12;;;;;;;1.20;1.00;;;7.30;98.00;;;;;;5105707;28;20517;-71
2021/11/17 12:11:49;;;;;;;1.87;1.30;;;7.40;98.00;;;;;;5107270;28;20456;-71
2021/11/17 12:14:37;;;;;;;1.20;1.00;;;7.30;98.00;;;;;;5093272;28;20473;-71
2021/11/17 12:17:06;;;;;;;1.20;1.00;;;7.30;98.00;;;;;;5109856;28;20455;-71
2021/11/17 12:19:45;;;;;;;1.20;0.90;;;7.30;98.00;;;;;;5111230;28;20465;-70
2021/11/17 12:22:15;;;;;;;1.20;0.90;;;7.20;98.00;;;;;;5101799;28;20463;-71
2021/11/17 12:24:45;;;;;;;1.20;0.97;;;7.20;98.00;;;;;;5110283;28;20462;-71
2021/11/17 12:27:16;;;;;;;1.20;1.00;;;7.20;98.00;;;;;;5095142;28;21004;-71
2021/11/17 12:30:05;;;;;;;1.20;1.00;;;7.10;98.00;;;;;;5110577;28;20953;-70
2021/11/17 12:32:36;;;;;;;1.20;1.00;;;7.20;98.00;;;;;;5107005;28;20491;-70
2021/11/17 12:35:20;;;;;;;1.20;1.00;;;7.30;98.00;;;;;;5101905;28;20509;-71
2021/11/17 12:37:50;;;;;;;1.20;1.00;;;7.40;98.00;;;;;;5086993;28;20522;-71
2021/11/17 12:40:30;;;;;;;1.20;0.93;;;7.20;98.00;;;;;;5095527;28;20493;-70
2021/11/17 12:43:01;;;;;;;1.20;1.00;;;7.20;98.00;;;;;;5093637;28;20509;-70
2021/11/17 12:45:32;;;;;;;1.93;1.30;;;7.20;98.00;;;;;;5110308;28;20529;-70
2021/11/17 12:48:20;;;;;;;1.20;1.00;;;7.20;98.00;;;;;;5091956;28;20516;-70
2021/11/17 12:50:50;;;;;;;1.20;1.10;;;7.20;98.00;;;;;;5073759;28;20531;-69
2021/11/17 12:53:21;;;;;;;3.23;1.10;;;7.40;98.00;;;;;;5073606;28;20527;-70
2021/11/17 12:55:50;;;;;;;1.20;1.00;;;7.30;98.00;;;;;;5072752;28;20457;-69
2021/11/17 12:58:24;;;;;;;1.20;1.00;;;7.20;98.00;;;;;;5073540;28;20487;-70
2021/11/17 13:00:59;;;;;;;1.20;1.00;;;7.20;98.00;;;;;;5073582;28;20520;-70
2021/11/17 13:03:37;;;;;;;1.20;1.00;;;7.20;98.00;;;;;;5073453;28;20457;-69
2021/11/17 13:06:08;;;;;;;1.20;1.00;;;7.20;98.00;;;;;;5073616;28;20490;-68
2021/11/17 13:08:37;;;;;;;1.20;1.00;;;7.20;98.00;;;;;;5073178;28;20461;-69
2021/11/17 13:11:15;;;;;;;1.20;1.00;;;7.20;98.00;;;;;;5073401;28;20526;-69
2021/11/17 13:13:47;;;;;;;1.20;1.00;;;7.20;98.00;;;;;;5071976;28;20490;-68
2021/11/17 13:16:19;;;;;;;1.43;1.10;;;7.40;98.00;;;;;;5073496;28;20559;-69
2021/11/17 13:18:59;;;;;;;1.20;1.00;;;7.50;98.00;;;;;;5073299;28;20555;-69
2021/11/17 13:21:37;;;;;;;1.20;1.00;;;7.40;98.00;;;;;;5073632;28;20459;-69
2021/11/17 13:24:26;;;;;;;1.67;1.20;;;7.50;98.00;;;;;;5073494;28;20462;-69
2021/11/17 13:27:14;;;;;;;1.20;0.90;;;7.60;98.00;;;;;;5073051;28;20484;-68
2021/11/17 13:29:53;;;;;;;2.60;1.10;;;7.60;98.00;;;;;;5073161;28;20453;-69
2021/11/17 13:32:27;;;;;;;1.20;0.90;;;7.50;98.00;;;;;;5072731;28;21043;-69
2021/11/17 13:34:56;;;;;;;1.20;1.00;;;7.40;98.00;;;;;;5073152;28;20936;-69
2021/11/17 13:37:34;;;;;;;1.20;1.00;;;7.40;98.00;;;;;;5072716;28;20498;-69
2021/11/17 13:40:04;;;;;;;1.30;1.10;;;7.40;98.00;;;;;;5072738;28;20545;-69
2021/11/17 13:42:31;;;;;;;1.20;0.93;;;7.40;98.00;;;;;;5072789;28;20452;-69
2021/11/17 13:45:01;;;;;;;1.20;1.00;;;7.30;98.00;;;;;;5072648;28;20520;-68
2021/11/17 13:47:30;;;;;;;1.20;1.00;;;7.30;98.00;;;;;;5072376;28;20541;-69
2021/11/17 13:49:58;;;;;;;1.20;1.00;;;7.20;98.00;;;;;;5072538;28;20879;-69
2021/11/17 13:52:31;;;;;;;1.70;1.23;;;7.10;98.00;;;;;;5072447;28;20509;-68
2021/11/17 13:54:58;;;;;;;1.20;0.90;;;7.20;98.00;;;;;;5072193;28;20978;-69
2021/11/17 13:57:28;;;;;;;1.20;1.00;;;7.20;98.00;;;;;;5072157;28;20447;-69
2021/11/17 13:59:56;;;;;;;1.20;1.00;;;7.10;98.00;;;;;;5072393;28;20543;-69
2021/11/17 14:02:25;;;;;;;1.20;1.00;;;7.20;98.00;;;;;;5072183;28;20453;-69
2021/11/17 14:04:52;;;;;;;1.20;1.00;;;7.00;98.00;;;;;;5072199;28;20512;-68
2021/11/17 14:07:21;;;;;;;1.20;1.00;;;6.90;98.00;;;;;;5072055;28;20489;-69
2021/11/17 14:09:51;;;;;;;1.20;1.00;;;7.00;98.00;;;;;;5072341;28;20791;-68
2021/11/17 14:12:20;;;;;;;1.20;1.00;;;6.90;98.00;;;;;;5072092;28;20484;-69
2021/11/17 14:14:48;;;;;;;2.23;1.30;;;7.00;98.00;;;;;;5072015;28;20470;-69
2021/11/17 14:17:15;;;;;;;1.20;0.93;;;6.90;98.00;;;;;;5072215;28;20799;-69
2021/11/17 14:19:44;;;;;;;1.20;1.00;;;7.00;98.00;;;;;;5072176;28;20466;-68
2021/11/17 14:22:11;;;;;;;1.20;1.00;;;7.10;98.00;;;;;;5071821;28;20509;-69
2021/11/17 14:24:38;;;;;;;1.20;1.00;;;7.20;98.00;;;;;;5072243;28;20466;-69
2021/11/17 14:27:08;;;;;;;1.20;1.10;;;7.10;98.00;;;;;;5071990;28;20587;-69
2021/11/17 14:29:42;;;;;;;1.20;1.00;;;7.20;98.00;;;;;;5071752;28;20461;-69
2021/11/17 14:32:11;;;;;;;1.20;1.00;;;7.20;98.00;;;;;;5072374;28;20469;-70
2021/11/17 14:34:39;;;;;;;1.20;0.90;;;7.20;98.00;;;;;;5072016;28;20494;-69
2021/11/17 14:37:09;;;;;;;1.20;1.00;;;7.20;98.00;;;;;;5072247;28;20495;-68
2021/11/17 14:39:38;;;;;;;1.20;1.00;;;7.10;98.00;;;;;;5072091;28;20458;-69
2021/11/17 14:42:08;;;;;;;1.20;1.00;;;7.10;98.00;;;;;;5071849;28;20455;-69
2021/11/17 14:44:36;;;;;;;1.20;1.00;;;7.00;98.00;;;;;;5071926;28;20543;-69
2021/11/17 14:47:05;;;;;;;1.33;1.13;;;7.00;98.00;;;;;;5071669;28;20583;-68
2021/11/17 14:49:33;;;;;;;1.20;1.00;;;7.00;98.00;;;;;;5071628;28;20461;-69
2021/11/17 14:52:01;;;;;;;1.20;1.00;;;7.00;98.00;;;;;;5070325;28;20511;-69
2021/11/17 14:54:30;;;;;;;1.20;0.90;;;7.10;98.00;;;;;;5071276;28;20452;-68
2021/11/17 14:56:57;;;;;;;1.20;1.00;;;7.20;98.00;;;;;;5071360;28;21013;-69
2021/11/17 14:59:24;;;;;;;1.30;1.20;;;7.20;98.00;;;;;;5070587;28;20468;-69
2021/11/17 15:01:51;;;;;;;1.30;1.00;;;7.10;98.00;;;;;;5071319;28;20949;-69
2021/11/17 15:04:18;;;;;;;1.20;1.00;;;7.20;98.00;;;;;;5071572;28;20454;-69
2021/11/17 15:06:46;;;;;;;1.20;1.00;;;7.30;98.00;;;;;;5071447;28;20449;-69
2021/11/17 15:09:14;;;;;;;1.70;1.10;;;7.30;98.00;;;;;;5073453;28;20524;-69
2021/11/17 15:11:51;;;;;;;1.20;1.10;;;7.20;98.00;;;;;;5075241;28;21130;-69
2021/11/17 15:14:19;;;;;;;1.20;1.20;;;7.10;98.00;;;;;;5075422;28;20524;-69
2021/11/17 15:16:47;;;;;;;1.20;0.90;;;7.10;98.00;;;;;;5074097;28;20463;-68
2021/11/17 15:19:14;;;;;;;1.20;1.00;;;7.10;98.00;;;;;;5074649;28;20447;-68
2021/11/17 15:21:42;;;;;;;1.20;1.10;;;7.10;98.00;;;;;;5074691;28;20457;-69
2021/11/17 15:24:10;;;;;;;1.20;1.00;;;7.20;98.00;;;;;;5074711;28;20926;-69
2021/11/17 15:26:49;;;;;;;1.20;1.00;;;7.10;98.00;;;;;;5075386;28;20512;-68
2021/11/17 15:29:16;;;;;;;1.20;1.00;;;7.10;98.00;;;;;;5075500;28;20455;-69
2021/11/17 15:31:46;;;;;;;1.70;1.10;;;7.20;98.00;;;;;;5075320;28;20518;-69
2021/11/17 15:34:13;;;;;;;1.20;1.10;;;7.30;98.00;;;;;;5075195;28;20464;-68
2021/11/17 15:36:41;;;;;;;1.20;1.00;;;7.40;98.00;;;;;;5075393;28;20466;-69
2021/11/17 15:39:09;;;;;;;1.20;1.00;;;7.50;98.00;;;;;;5075273;28;20488;-69
2021/11/17 15:41:40;;;;;;;1.20;0.90;;;7.50;98.00;;;;;;5075248;28;20536;-69
2021/11/17 15:44:09;;;;;;;1.20;1.00;;;7.50;98.00;;;;;;5075240;28;20529;-69
2021/11/17 15:46:37;;;;;;;1.20;1.00;;;7.60;98.00;;;;;;5075223;28;20503;-66
2021/11/17 15:49:05;;;;;;;1.20;1.10;;;7.50;98.00;;;;;;5075010;28;20502;-66
2021/11/17 15:51:34;;;;;;;1.20;1.10;;;7.50;98.00;;;;;;5075125;28;20505;-66
2021/11/17 15:54:02;;;;;;;1.20;1.00;;;7.40;98.00;;;;;;5075185;28;20504;-66
2021/11/17 15:56:32;;;;;;;2.63;1.10;;;7.40;98.00;;;;;;5075086;28;20506;-66
2021/11/17 15:59:00;;;;;;;1.70;1.10;;;7.30;98.00;;;;;;5074834;28;20452;-66
2021/11/17 16:01:34;;;;;;;1.20;1.00;;;7.30;98.00;;;;;;5074684;28;20445;-66
2021/11/17 16:04:05;;;;;;;1.20;1.00;;;7.20;98.00;;;;;;5074600;28;20455;-67
2021/11/17 16:06:34;;;;;;;1.20;1.00;;;7.20;98.00;;;;;;5073392;28;20548;-66
2021/11/17 16:09:02;;;;;;;4.17;1.33;;;7.30;98.00;;;;;;5074258;28;20484;-67